sensor_id;sensor_type;location;lat;lon;timestamp;P1;durP1;ratioP1;P2;durP2;ratioP2
61635;SDS011;59438;45.014;39.006;2023-02-15T00:02:03;13.02;;;7.03;;
61635;SDS011;59438;45.014;39.006;2023-02-15T00:04:31;13.02;;;7.32;;
61635;SDS011;59438;45.014;39.006;2023-02-15T00:06:57;14.45;;;7.28;;
61635;SDS011;59438;45.014;39.006;2023-02-15T00:09:24;13.15;;;6.90;;
61635;SDS011;59438;45.014;39.006;2023-02-15T00:11:50;15.93;;;7.18;;
61635;SDS011;59438;45.014;39.006;2023-02-15T00:14:17;18.25;;;7.53;;
61635;SDS011;59438;45.014;39.006;2023-02-15T00:16:45;14.75;;;7.03;;
61635;SDS011;59438;45.014;39.006;2023-02-15T00:19:13;20.80;;;7.90;;
61635;SDS011;59438;45.014;39.006;2023-02-15T00:21:42;16.88;;;8.43;;
61635;SDS011;59438;45.014;39.006;2023-02-15T00:24:10;16.25;;;7.60;;
61635;SDS011;59438;45.014;39.006;2023-02-15T00:26:37;18.05;;;8.63;;
61635;SDS011;59438;45.014;39.006;2023-02-15T00:29:06;17.63;;;8.55;;
61635;SDS011;59438;45.014;39.006;2023-02-15T00:31:33;11.00;;;6.97;;
61635;SDS011;59438;45.014;39.006;2023-02-15T00:34:01;15.77;;;7.95;;
61635;SDS011;59438;45.014;39.006;2023-02-15T00:36:28;13.55;;;7.93;;
61635;SDS011;59438;45.014;39.006;2023-02-15T00:38:56;12.02;;;6.88;;
61635;SDS011;59438;45.014;39.006;2023-02-15T00:41:22;14.52;;;7.78;;
61635;SDS011;59438;45.014;39.006;2023-02-15T00:43:49;18.38;;;7.88;;
61635;SDS011;59438;45.014;39.006;2023-02-15T00:46:16;14.65;;;6.97;;
61635;SDS011;59438;45.014;39.006;2023-02-15T00:48:42;14.98;;;7.82;;
61635;SDS011;59438;45.014;39.006;2023-02-15T00:51:08;15.77;;;7.47;;
61635;SDS011;59438;45.014;39.006;2023-02-15T00:53:35;14.15;;;8.10;;
61635;SDS011;59438;45.014;39.006;2023-02-15T00:56:03;12.88;;;6.82;;
61635;SDS011;59438;45.014;39.006;2023-02-15T00:58:29;16.90;;;8.30;;
61635;SDS011;59438;45.014;39.006;2023-02-15T01:01:01;15.57;;;8.13;;
61635;SDS011;59438;45.014;39.006;2023-02-15T01:03:29;14.65;;;8.30;;
61635;SDS011;59438;45.014;39.006;2023-02-15T01:05:56;17.15;;;8.38;;
61635;SDS011;59438;45.014;39.006;2023-02-15T01:08:22;18.27;;;8.90;;
61635;SDS011;59438;45.014;39.006;2023-02-15T01:10:48;16.77;;;8.20;;
61635;SDS011;59438;45.014;39.006;2023-02-15T01:13:17;20.23;;;9.30;;
61635;SDS011;59438;45.014;39.006;2023-02-15T01:15:43;16.52;;;8.73;;
61635;SDS011;59438;45.014;39.006;2023-02-15T01:18:10;16.90;;;8.48;;
61635;SDS011;59438;45.014;39.006;2023-02-15T01:20:37;17.08;;;9.32;;
61635;SDS011;59438;45.014;39.006;2023-02-15T01:23:05;17.73;;;9.02;;
61635;SDS011;59438;45.014;39.006;2023-02-15T01:25:33;16.17;;;8.75;;
61635;SDS011;59438;45.014;39.006;2023-02-15T01:28:00;16.45;;;8.48;;
61635;SDS011;59438;45.014;39.006;2023-02-15T01:30:28;14.50;;;7.93;;
61635;SDS011;59438;45.014;39.006;2023-02-15T01:32:55;16.65;;;8.43;;
61635;SDS011;59438;45.014;39.006;2023-02-15T01:35:21;14.10;;;7.85;;
61635;SDS011;59438;45.014;39.006;2023-02-15T01:37:48;16.63;;;8.82;;
61635;SDS011;59438;45.014;39.006;2023-02-15T01:40:15;15.48;;;7.82;;
61635;SDS011;59438;45.014;39.006;2023-02-15T01:42:43;15.23;;;8.18;;
61635;SDS011;59438;45.014;39.006;2023-02-15T01:45:15;16.70;;;8.68;;
61635;SDS011;59438;45.014;39.006;2023-02-15T01:47:50;14.23;;;7.72;;
61635;SDS011;59438;45.014;39.006;2023-02-15T01:50:21;13.88;;;8.20;;
61635;SDS011;59438;45.014;39.006;2023-02-15T01:52:52;20.42;;;8.07;;
61635;SDS011;59438;45.014;39.006;2023-02-15T01:55:23;15.68;;;7.72;;
61635;SDS011;59438;45.014;39.006;2023-02-15T01:57:52;16.75;;;8.35;;
61635;SDS011;59438;45.014;39.006;2023-02-15T02:00:19;13.65;;;7.63;;
61635;SDS011;59438;45.014;39.006;2023-02-15T02:02:48;12.90;;;7.05;;
61635;SDS011;59438;45.014;39.006;2023-02-15T02:05:16;14.43;;;7.53;;
61635;SDS011;59438;45.014;39.006;2023-02-15T02:07:43;13.60;;;6.70;;
61635;SDS011;59438;45.014;39.006;2023-02-15T02:10:13;15.18;;;7.68;;
61635;SDS011;59438;45.014;39.006;2023-02-15T02:12:41;12.18;;;7.25;;
61635;SDS011;59438;45.014;39.006;2023-02-15T02:15:09;13.35;;;6.65;;
61635;SDS011;59438;45.014;39.006;2023-02-15T02:17:38;15.18;;;7.65;;
61635;SDS011;59438;45.014;39.006;2023-02-15T02:23:25;14.07;;;7.50;;
61635;SDS011;59438;45.014;39.006;2023-02-15T02:29:20;12.50;;;6.53;;
61635;SDS011;59438;45.014;39.006;2023-02-15T02:34:42;11.60;;;7.50;;
61635;SDS011;59438;45.014;39.006;2023-02-15T02:37:18;12.40;;;7.22;;
61635;SDS011;59438;45.014;39.006;2023-02-15T02:39:49;14.18;;;7.70;;
61635;SDS011;59438;45.014;39.006;2023-02-15T02:42:34;10.85;;;6.40;;
61635;SDS011;59438;45.014;39.006;2023-02-15T02:45:05;13.60;;;7.43;;
61635;SDS011;59438;45.014;39.006;2023-02-15T02:47:35;11.75;;;7.40;;
61635;SDS011;59438;45.014;39.006;2023-02-15T02:50:08;12.13;;;7.30;;
61635;SDS011;59438;45.014;39.006;2023-02-15T02:52:39;11.57;;;6.72;;
61635;SDS011;59438;45.014;39.006;2023-02-15T02:55:09;13.80;;;7.20;;
61635;SDS011;59438;45.014;39.006;2023-02-15T03:00:08;15.55;;;7.65;;
61635;SDS011;59438;45.014;39.006;2023-02-15T03:02:36;11.07;;;6.65;;
61635;SDS011;59438;45.014;39.006;2023-02-15T03:05:08;11.43;;;6.60;;
61635;SDS011;59438;45.014;39.006;2023-02-15T03:07:39;12.40;;;7.30;;
61635;SDS011;59438;45.014;39.006;2023-02-15T03:10:07;12.73;;;7.78;;
61635;SDS011;59438;45.014;39.006;2023-02-15T03:12:35;12.65;;;7.60;;
61635;SDS011;59438;45.014;39.006;2023-02-15T03:15:05;14.27;;;7.65;;
61635;SDS011;59438;45.014;39.006;2023-02-15T03:17:35;16.23;;;7.43;;
61635;SDS011;59438;45.014;39.006;2023-02-15T03:20:06;11.88;;;7.60;;
61635;SDS011;59438;45.014;39.006;2023-02-15T03:22:40;16.20;;;7.78;;
61635;SDS011;59438;45.014;39.006;2023-02-15T03:25:13;12.88;;;7.82;;
61635;SDS011;59438;45.014;39.006;2023-02-15T03:27:44;13.98;;;7.65;;
61635;SDS011;59438;45.014;39.006;2023-02-15T03:30:15;16.20;;;8.13;;
61635;SDS011;59438;45.014;39.006;2023-02-15T03:32:44;14.20;;;7.90;;
61635;SDS011;59438;45.014;39.006;2023-02-15T03:35:15;17.23;;;8.85;;
61635;SDS011;59438;45.014;39.006;2023-02-15T03:37:42;19.63;;;8.40;;
61635;SDS011;59438;45.014;39.006;2023-02-15T03:42:41;14.40;;;7.65;;
61635;SDS011;59438;45.014;39.006;2023-02-15T03:45:11;15.25;;;8.90;;
61635;SDS011;59438;45.014;39.006;2023-02-15T03:47:44;15.52;;;9.00;;
61635;SDS011;59438;45.014;39.006;2023-02-15T03:50:13;17.80;;;8.32;;
61635;SDS011;59438;45.014;39.006;2023-02-15T03:52:44;13.95;;;8.60;;
61635;SDS011;59438;45.014;39.006;2023-02-15T03:55:11;15.23;;;9.30;;
61635;SDS011;59438;45.014;39.006;2023-02-15T03:57:37;20.60;;;9.85;;
61635;SDS011;59438;45.014;39.006;2023-02-15T04:00:08;18.73;;;10.13;;
61635;SDS011;59438;45.014;39.006;2023-02-15T04:02:38;16.90;;;9.77;;
61635;SDS011;59438;45.014;39.006;2023-02-15T04:07:36;13.45;;;8.02;;
61635;SDS011;59438;45.014;39.006;2023-02-15T04:10:03;16.20;;;9.48;;
61635;SDS011;59438;45.014;39.006;2023-02-15T04:12:30;15.65;;;8.15;;
61635;SDS011;59438;45.014;39.006;2023-02-15T04:14:57;17.58;;;8.90;;
61635;SDS011;59438;45.014;39.006;2023-02-15T04:17:23;16.58;;;8.93;;
61635;SDS011;59438;45.014;39.006;2023-02-15T04:19:49;14.75;;;8.10;;
61635;SDS011;59438;45.014;39.006;2023-02-15T04:22:18;17.65;;;8.60;;
61635;SDS011;59438;45.014;39.006;2023-02-15T04:24:46;15.85;;;8.55;;
61635;SDS011;59438;45.014;39.006;2023-02-15T04:27:12;16.30;;;8.32;;
61635;SDS011;59438;45.014;39.006;2023-02-15T04:29:39;14.65;;;8.00;;
61635;SDS011;59438;45.014;39.006;2023-02-15T04:32:05;14.02;;;7.68;;
61635;SDS011;59438;45.014;39.006;2023-02-15T04:34:31;17.60;;;8.50;;
61635;SDS011;59438;45.014;39.006;2023-02-15T04:36:58;13.80;;;8.82;;
61635;SDS011;59438;45.014;39.006;2023-02-15T04:39:24;18.02;;;9.15;;
61635;SDS011;59438;45.014;39.006;2023-02-15T04:41:52;16.77;;;8.95;;
61635;SDS011;59438;45.014;39.006;2023-02-15T04:44:21;17.02;;;7.68;;
61635;SDS011;59438;45.014;39.006;2023-02-15T04:46:47;18.42;;;8.77;;
61635;SDS011;59438;45.014;39.006;2023-02-15T04:49:14;14.23;;;7.57;;
61635;SDS011;59438;45.014;39.006;2023-02-15T04:51:40;16.27;;;8.63;;
61635;SDS011;59438;45.014;39.006;2023-02-15T04:54:07;16.42;;;8.80;;
61635;SDS011;59438;45.014;39.006;2023-02-15T04:56:33;17.23;;;8.02;;
61635;SDS011;59438;45.014;39.006;2023-02-15T04:59:01;15.57;;;8.00;;
61635;SDS011;59438;45.014;39.006;2023-02-15T05:01:27;15.50;;;8.50;;
61635;SDS011;59438;45.014;39.006;2023-02-15T05:03:54;19.80;;;9.07;;
61635;SDS011;59438;45.014;39.006;2023-02-15T05:06:20;17.20;;;8.20;;
61635;SDS011;59438;45.014;39.006;2023-02-15T05:08:46;14.23;;;8.48;;
61635;SDS011;59438;45.014;39.006;2023-02-15T05:11:13;18.95;;;9.35;;
61635;SDS011;59438;45.014;39.006;2023-02-15T05:13:39;20.35;;;10.00;;
61635;SDS011;59438;45.014;39.006;2023-02-15T05:16:07;18.30;;;9.00;;
61635;SDS011;59438;45.014;39.006;2023-02-15T05:18:33;24.80;;;10.30;;
61635;SDS011;59438;45.014;39.006;2023-02-15T05:21:00;19.92;;;10.20;;
61635;SDS011;59438;45.014;39.006;2023-02-15T05:23:26;21.27;;;10.15;;
61635;SDS011;59438;45.014;39.006;2023-02-15T05:25:53;18.38;;;9.65;;
61635;SDS011;59438;45.014;39.006;2023-02-15T05:28:19;22.65;;;10.68;;
61635;SDS011;59438;45.014;39.006;2023-02-15T05:30:46;22.05;;;11.23;;
61635;SDS011;59438;45.014;39.006;2023-02-15T05:33:15;25.98;;;10.43;;
61635;SDS011;59438;45.014;39.006;2023-02-15T05:35:41;23.60;;;10.70;;
61635;SDS011;59438;45.014;39.006;2023-02-15T05:38:08;21.08;;;10.95;;
61635;SDS011;59438;45.014;39.006;2023-02-15T05:40:34;23.33;;;11.00;;
61635;SDS011;59438;45.014;39.006;2023-02-15T05:43:00;22.35;;;10.35;;
61635;SDS011;59438;45.014;39.006;2023-02-15T05:45:27;28.45;;;11.95;;
61635;SDS011;59438;45.014;39.006;2023-02-15T05:47:53;26.00;;;11.68;;
61635;SDS011;59438;45.014;39.006;2023-02-15T05:50:21;26.30;;;12.57;;
61635;SDS011;59438;45.014;39.006;2023-02-15T05:52:47;23.25;;;11.68;;
61635;SDS011;59438;45.014;39.006;2023-02-15T05:55:14;25.77;;;12.10;;
61635;SDS011;59438;45.014;39.006;2023-02-15T05:57:40;25.38;;;11.68;;
61635;SDS011;59438;45.014;39.006;2023-02-15T06:00:07;25.35;;;12.32;;
61635;SDS011;59438;45.014;39.006;2023-02-15T06:02:34;24.65;;;12.77;;
61635;SDS011;59438;45.014;39.006;2023-02-15T06:05:04;27.55;;;14.10;;
61635;SDS011;59438;45.014;39.006;2023-02-15T06:07:33;27.85;;;15.35;;
61635;SDS011;59438;45.014;39.006;2023-02-15T06:09:59;27.77;;;13.90;;
61635;SDS011;59438;45.014;39.006;2023-02-15T06:12:26;32.78;;;15.93;;
61635;SDS011;59438;45.014;39.006;2023-02-15T06:14:52;41.33;;;19.00;;
61635;SDS011;59438;45.014;39.006;2023-02-15T06:17:18;38.38;;;16.50;;
61635;SDS011;59438;45.014;39.006;2023-02-15T06:19:45;33.20;;;17.95;;
61635;SDS011;59438;45.014;39.006;2023-02-15T06:22:11;39.33;;;18.73;;
61635;SDS011;59438;45.014;39.006;2023-02-15T06:24:39;49.60;;;21.85;;
61635;SDS011;59438;45.014;39.006;2023-02-15T06:27:06;35.03;;;20.00;;
61635;SDS011;59438;45.014;39.006;2023-02-15T06:29:32;29.70;;;13.38;;
61635;SDS011;59438;45.014;39.006;2023-02-15T06:31:58;30.13;;;12.65;;
61635;SDS011;59438;45.014;39.006;2023-02-15T06:34:25;26.27;;;12.95;;
61635;SDS011;59438;45.014;39.006;2023-02-15T06:36:51;22.38;;;11.82;;
61635;SDS011;59438;45.014;39.006;2023-02-15T06:39:17;21.20;;;11.55;;
61635;SDS011;59438;45.014;39.006;2023-02-15T06:41:45;21.67;;;11.52;;
61635;SDS011;59438;45.014;39.006;2023-02-15T06:44:12;25.42;;;11.80;;
61635;SDS011;59438;45.014;39.006;2023-02-15T06:46:38;23.20;;;11.55;;
61635;SDS011;59438;45.014;39.006;2023-02-15T06:49:04;25.27;;;11.43;;
61635;SDS011;59438;45.014;39.006;2023-02-15T06:51:31;21.63;;;11.07;;
61635;SDS011;59438;45.014;39.006;2023-02-15T06:53:57;23.75;;;11.77;;
61635;SDS011;59438;45.014;39.006;2023-02-15T06:56:23;24.70;;;11.68;;
61635;SDS011;59438;45.014;39.006;2023-02-15T06:58:51;20.52;;;11.43;;
61635;SDS011;59438;45.014;39.006;2023-02-15T07:01:18;28.77;;;13.15;;
61635;SDS011;59438;45.014;39.006;2023-02-15T07:03:44;22.95;;;11.90;;
61635;SDS011;59438;45.014;39.006;2023-02-15T07:06:10;20.92;;;11.15;;
61635;SDS011;59438;45.014;39.006;2023-02-15T07:08:37;23.70;;;11.05;;
61635;SDS011;59438;45.014;39.006;2023-02-15T07:11:05;19.73;;;10.82;;
61635;SDS011;59438;45.014;39.006;2023-02-15T07:13:31;19.95;;;10.55;;
61635;SDS011;59438;45.014;39.006;2023-02-15T07:15:59;22.58;;;10.85;;
61635;SDS011;59438;45.014;39.006;2023-02-15T07:18:26;21.40;;;11.07;;
61635;SDS011;59438;45.014;39.006;2023-02-15T07:20:52;17.42;;;10.20;;
61635;SDS011;59438;45.014;39.006;2023-02-15T07:23:18;21.95;;;10.75;;
61635;SDS011;59438;45.014;39.006;2023-02-15T07:25:45;19.98;;;9.80;;
61635;SDS011;59438;45.014;39.006;2023-02-15T07:28:11;17.52;;;9.02;;
61635;SDS011;59438;45.014;39.006;2023-02-15T07:30:37;17.10;;;9.65;;
61635;SDS011;59438;45.014;39.006;2023-02-15T07:33:05;17.55;;;9.18;;
61635;SDS011;59438;45.014;39.006;2023-02-15T07:35:32;16.20;;;8.90;;
61635;SDS011;59438;45.014;39.006;2023-02-15T07:37:58;16.73;;;8.63;;
61635;SDS011;59438;45.014;39.006;2023-02-15T07:40:25;22.30;;;9.95;;
61635;SDS011;59438;45.014;39.006;2023-02-15T07:43:09;17.05;;;9.05;;
61635;SDS011;59438;45.014;39.006;2023-02-15T07:45:36;17.73;;;9.32;;
61635;SDS011;59438;45.014;39.006;2023-02-15T07:48:03;17.00;;;8.80;;
61635;SDS011;59438;45.014;39.006;2023-02-15T07:50:31;14.88;;;8.23;;
61635;SDS011;59438;45.014;39.006;2023-02-15T07:52:58;15.00;;;8.20;;
61635;SDS011;59438;45.014;39.006;2023-02-15T07:55:26;12.05;;;7.95;;
61635;SDS011;59438;45.014;39.006;2023-02-15T07:57:53;11.65;;;7.32;;
61635;SDS011;59438;45.014;39.006;2023-02-15T08:00:19;13.45;;;7.25;;
61635;SDS011;59438;45.014;39.006;2023-02-15T08:02:47;14.80;;;8.55;;
61635;SDS011;59438;45.014;39.006;2023-02-15T08:05:14;13.45;;;8.20;;
61635;SDS011;59438;45.014;39.006;2023-02-15T08:07:42;19.73;;;8.68;;
61635;SDS011;59438;45.014;39.006;2023-02-15T08:10:08;18.55;;;9.55;;
61635;SDS011;59438;45.014;39.006;2023-02-15T08:12:35;18.70;;;10.50;;
61635;SDS011;59438;45.014;39.006;2023-02-15T08:15:04;18.42;;;10.02;;
61635;SDS011;59438;45.014;39.006;2023-02-15T08:17:30;20.17;;;11.20;;
61635;SDS011;59438;45.014;39.006;2023-02-15T08:20:01;18.10;;;10.00;;
61635;SDS011;59438;45.014;39.006;2023-02-15T08:22:27;16.85;;;9.88;;
61635;SDS011;59438;45.014;39.006;2023-02-15T08:24:55;20.77;;;11.23;;
61635;SDS011;59438;45.014;39.006;2023-02-15T08:27:22;19.52;;;11.18;;
61635;SDS011;59438;45.014;39.006;2023-02-15T08:29:48;19.13;;;11.15;;
61635;SDS011;59438;45.014;39.006;2023-02-15T08:32:14;19.40;;;10.55;;
61635;SDS011;59438;45.014;39.006;2023-02-15T08:34:41;15.98;;;9.52;;
61635;SDS011;59438;45.014;39.006;2023-02-15T08:37:07;16.95;;;9.52;;
61635;SDS011;59438;45.014;39.006;2023-02-15T08:39:34;17.83;;;8.77;;
61635;SDS011;59438;45.014;39.006;2023-02-15T08:42:02;17.60;;;9.32;;
61635;SDS011;59438;45.014;39.006;2023-02-15T08:44:28;15.88;;;9.27;;
61635;SDS011;59438;45.014;39.006;2023-02-15T08:46:55;18.27;;;9.98;;
61635;SDS011;59438;45.014;39.006;2023-02-15T08:49:21;15.27;;;8.88;;
61635;SDS011;59438;45.014;39.006;2023-02-15T08:51:48;14.20;;;8.10;;
61635;SDS011;59438;45.014;39.006;2023-02-15T08:54:15;13.55;;;8.07;;
61635;SDS011;59438;45.014;39.006;2023-02-15T08:56:43;16.70;;;8.23;;
61635;SDS011;59438;45.014;39.006;2023-02-15T08:59:13;14.98;;;8.20;;
61635;SDS011;59438;45.014;39.006;2023-02-15T09:01:41;12.40;;;7.90;;
61635;SDS011;59438;45.014;39.006;2023-02-15T09:04:08;11.88;;;7.18;;
61635;SDS011;59438;45.014;39.006;2023-02-15T09:06:35;13.23;;;7.82;;
61635;SDS011;59438;45.014;39.006;2023-02-15T09:09:01;14.32;;;8.68;;
61635;SDS011;59438;45.014;39.006;2023-02-15T09:11:29;13.50;;;7.80;;
61635;SDS011;59438;45.014;39.006;2023-02-15T09:13:57;15.07;;;7.55;;
61635;SDS011;59438;45.014;39.006;2023-02-15T09:16:27;12.02;;;7.95;;
61635;SDS011;59438;45.014;39.006;2023-02-15T09:18:54;12.85;;;7.15;;
61635;SDS011;59438;45.014;39.006;2023-02-15T09:21:22;11.18;;;7.07;;
61635;SDS011;59438;45.014;39.006;2023-02-15T09:23:49;13.75;;;7.00;;
61635;SDS011;59438;45.014;39.006;2023-02-15T09:26:17;11.10;;;6.57;;
61635;SDS011;59438;45.014;39.006;2023-02-15T09:28:45;12.48;;;6.80;;
61635;SDS011;59438;45.014;39.006;2023-02-15T09:31:13;15.57;;;7.72;;
61635;SDS011;59438;45.014;39.006;2023-02-15T09:33:43;10.45;;;6.75;;
61635;SDS011;59438;45.014;39.006;2023-02-15T09:36:14;15.05;;;7.70;;
61635;SDS011;59438;45.014;39.006;2023-02-15T09:38:41;12.85;;;6.18;;
61635;SDS011;59438;45.014;39.006;2023-02-15T09:41:12;12.65;;;6.80;;
61635;SDS011;59438;45.014;39.006;2023-02-15T09:43:51;11.10;;;5.70;;
61635;SDS011;59438;45.014;39.006;2023-02-15T09:46:36;9.18;;;5.55;;
61635;SDS011;59438;45.014;39.006;2023-02-15T09:49:14;12.80;;;6.45;;
61635;SDS011;59438;45.014;39.006;2023-02-15T09:51:54;10.57;;;5.93;;
61635;SDS011;59438;45.014;39.006;2023-02-15T09:54:40;10.70;;;5.30;;
61635;SDS011;59438;45.014;39.006;2023-02-15T09:57:24;12.25;;;5.80;;
61635;SDS011;59438;45.014;39.006;2023-02-15T10:00:02;15.13;;;7.10;;
61635;SDS011;59438;45.014;39.006;2023-02-15T10:02:38;15.38;;;6.95;;
61635;SDS011;59438;45.014;39.006;2023-02-15T10:05:21;14.05;;;6.70;;
61635;SDS011;59438;45.014;39.006;2023-02-15T10:08:10;11.32;;;5.97;;
61635;SDS011;59438;45.014;39.006;2023-02-15T10:10:53;9.93;;;6.45;;
61635;SDS011;59438;45.014;39.006;2023-02-15T10:13:30;10.00;;;6.50;;
61635;SDS011;59438;45.014;39.006;2023-02-15T10:16:08;11.38;;;6.65;;
61635;SDS011;59438;45.014;39.006;2023-02-15T10:18:55;8.25;;;5.28;;
61635;SDS011;59438;45.014;39.006;2023-02-15T10:21:33;11.52;;;5.97;;
61635;SDS011;59438;45.014;39.006;2023-02-15T10:24:19;9.23;;;5.25;;
61635;SDS011;59438;45.014;39.006;2023-02-15T10:27:00;10.93;;;6.25;;
61635;SDS011;59438;45.014;39.006;2023-02-15T10:29:33;10.07;;;6.00;;
61635;SDS011;59438;45.014;39.006;2023-02-15T10:32:04;10.52;;;5.90;;
61635;SDS011;59438;45.014;39.006;2023-02-15T10:34:39;7.78;;;4.95;;
61635;SDS011;59438;45.014;39.006;2023-02-15T10:37:20;7.28;;;4.30;;
61635;SDS011;59438;45.014;39.006;2023-02-15T10:40:10;7.60;;;4.90;;
61635;SDS011;59438;45.014;39.006;2023-02-15T10:42:49;7.75;;;4.25;;
61635;SDS011;59438;45.014;39.006;2023-02-15T10:45:35;9.40;;;4.20;;
61635;SDS011;59438;45.014;39.006;2023-02-15T10:48:13;6.50;;;3.75;;
61635;SDS011;59438;45.014;39.006;2023-02-15T10:50:52;5.85;;;3.45;;
61635;SDS011;59438;45.014;39.006;2023-02-15T10:56:12;5.82;;;3.58;;
61635;SDS011;59438;45.014;39.006;2023-02-15T10:58:50;7.90;;;4.43;;
61635;SDS011;59438;45.014;39.006;2023-02-15T11:01:25;8.35;;;3.70;;
61635;SDS011;59438;45.014;39.006;2023-02-15T11:04:05;6.50;;;3.78;;
61635;SDS011;59438;45.014;39.006;2023-02-15T11:06:48;7.68;;;3.72;;
61635;SDS011;59438;45.014;39.006;2023-02-15T11:09:20;7.15;;;4.03;;
61635;SDS011;59438;45.014;39.006;2023-02-15T11:11:50;6.22;;;3.78;;
61635;SDS011;59438;45.014;39.006;2023-02-15T11:14:21;7.65;;;4.00;;
61635;SDS011;59438;45.014;39.006;2023-02-15T11:16:58;5.88;;;3.50;;
61635;SDS011;59438;45.014;39.006;2023-02-15T11:19:30;7.95;;;4.57;;
61635;SDS011;59438;45.014;39.006;2023-02-15T11:22:01;9.73;;;4.20;;
61635;SDS011;59438;45.014;39.006;2023-02-15T11:24:32;7.53;;;4.45;;
61635;SDS011;59438;45.014;39.006;2023-02-15T11:27:04;7.43;;;3.88;;
61635;SDS011;59438;45.014;39.006;2023-02-15T11:29:44;7.10;;;4.20;;
61635;SDS011;59438;45.014;39.006;2023-02-15T11:32:20;8.43;;;4.60;;
61635;SDS011;59438;45.014;39.006;2023-02-15T11:34:50;6.80;;;4.63;;
61635;SDS011;59438;45.014;39.006;2023-02-15T11:39:51;3.33;;;2.65;;
61635;SDS011;59438;45.014;39.006;2023-02-15T11:42:19;6.03;;;3.40;;
61635;SDS011;59438;45.014;39.006;2023-02-15T11:47:21;5.75;;;3.35;;
61635;SDS011;59438;45.014;39.006;2023-02-15T11:49:48;3.55;;;2.40;;
61635;SDS011;59438;45.014;39.006;2023-02-15T11:52:15;4.57;;;2.63;;
61635;SDS011;59438;45.014;39.006;2023-02-15T11:54:44;7.13;;;2.80;;
61635;SDS011;59438;45.014;39.006;2023-02-15T11:57:14;1.55;;;1.45;;
61635;SDS011;59438;45.014;39.006;2023-02-15T11:59:45;7.00;;;2.33;;
61635;SDS011;59438;45.014;39.006;2023-02-15T12:02:18;7.38;;;3.10;;
61635;SDS011;59438;45.014;39.006;2023-02-15T12:04:47;4.95;;;2.88;;
61635;SDS011;59438;45.014;39.006;2023-02-15T12:09:46;7.20;;;3.47;;
61635;SDS011;59438;45.014;39.006;2023-02-15T12:12:21;5.82;;;3.22;;
61635;SDS011;59438;45.014;39.006;2023-02-15T12:14:51;4.38;;;2.53;;
61635;SDS011;59438;45.014;39.006;2023-02-15T12:17:18;5.85;;;2.90;;
61635;SDS011;59438;45.014;39.006;2023-02-15T12:19:49;6.80;;;2.45;;
61635;SDS011;59438;45.014;39.006;2023-02-15T12:22:22;4.05;;;2.38;;
61635;SDS011;59438;45.014;39.006;2023-02-15T12:24:50;4.72;;;2.80;;
61635;SDS011;59438;45.014;39.006;2023-02-15T12:27:20;9.38;;;3.33;;
61635;SDS011;59438;45.014;39.006;2023-02-15T12:29:50;6.47;;;3.78;;
61635;SDS011;59438;45.014;39.006;2023-02-15T12:32:22;7.72;;;4.07;;
61635;SDS011;59438;45.014;39.006;2023-02-15T12:34:51;6.82;;;3.35;;
61635;SDS011;59438;45.014;39.006;2023-02-15T12:37:22;6.45;;;4.00;;
61635;SDS011;59438;45.014;39.006;2023-02-15T12:39:52;6.47;;;3.50;;
61635;SDS011;59438;45.014;39.006;2023-02-15T12:42:20;5.20;;;3.22;;
61635;SDS011;59438;45.014;39.006;2023-02-15T12:44:56;8.35;;;4.13;;
61635;SDS011;59438;45.014;39.006;2023-02-15T12:47:24;7.18;;;4.60;;
61635;SDS011;59438;45.014;39.006;2023-02-15T12:50:03;9.45;;;4.78;;
61635;SDS011;59438;45.014;39.006;2023-02-15T12:52:40;8.48;;;4.80;;
61635;SDS011;59438;45.014;39.006;2023-02-15T12:55:10;9.35;;;4.78;;
61635;SDS011;59438;45.014;39.006;2023-02-15T12:57:43;6.35;;;4.50;;
61635;SDS011;59438;45.014;39.006;2023-02-15T13:00:26;7.28;;;4.72;;
61635;SDS011;59438;45.014;39.006;2023-02-15T13:02:54;9.43;;;5.20;;
61635;SDS011;59438;45.014;39.006;2023-02-15T13:05:23;6.70;;;4.30;;
61635;SDS011;59438;45.014;39.006;2023-02-15T13:07:55;14.10;;;4.60;;
61635;SDS011;59438;45.014;39.006;2023-02-15T13:10:25;9.75;;;4.75;;
61635;SDS011;59438;45.014;39.006;2023-02-15T13:12:53;8.15;;;4.80;;
61635;SDS011;59438;45.014;39.006;2023-02-15T13:15:27;8.90;;;4.40;;
61635;SDS011;59438;45.014;39.006;2023-02-15T13:17:58;7.85;;;4.63;;
61635;SDS011;59438;45.014;39.006;2023-02-15T13:20:27;9.85;;;5.15;;
61635;SDS011;59438;45.014;39.006;2023-02-15T13:22:56;9.23;;;5.60;;
61635;SDS011;59438;45.014;39.006;2023-02-15T13:25:25;9.90;;;5.47;;
61635;SDS011;59438;45.014;39.006;2023-02-15T13:27:54;13.10;;;6.88;;
61635;SDS011;59438;45.014;39.006;2023-02-15T13:30:28;8.10;;;5.55;;
61635;SDS011;59438;45.014;39.006;2023-02-15T13:32:59;12.30;;;5.75;;
61635;SDS011;59438;45.014;39.006;2023-02-15T13:35:31;9.82;;;5.45;;
61635;SDS011;59438;45.014;39.006;2023-02-15T13:38:10;9.50;;;4.90;;
61635;SDS011;59438;45.014;39.006;2023-02-15T13:40:55;9.35;;;5.03;;
61635;SDS011;59438;45.014;39.006;2023-02-15T13:43:30;9.43;;;4.65;;
61635;SDS011;59438;45.014;39.006;2023-02-15T13:46:08;12.02;;;6.18;;
61635;SDS011;59438;45.014;39.006;2023-02-15T13:48:46;7.38;;;4.63;;
61635;SDS011;59438;45.014;39.006;2023-02-15T13:51:24;9.02;;;4.90;;
61635;SDS011;59438;45.014;39.006;2023-02-15T13:56:55;8.48;;;4.72;;
61635;SDS011;59438;45.014;39.006;2023-02-15T13:59:34;8.73;;;4.72;;
61635;SDS011;59438;45.014;39.006;2023-02-15T14:02:26;9.20;;;5.20;;
61635;SDS011;59438;45.014;39.006;2023-02-15T14:05:21;9.38;;;4.97;;
61635;SDS011;59438;45.014;39.006;2023-02-15T14:08:01;6.97;;;4.87;;
61635;SDS011;59438;45.014;39.006;2023-02-15T14:10:43;6.35;;;3.63;;
61635;SDS011;59438;45.014;39.006;2023-02-15T14:13:22;7.10;;;4.50;;
61635;SDS011;59438;45.014;39.006;2023-02-15T14:16:09;7.88;;;3.53;;
61635;SDS011;59438;45.014;39.006;2023-02-15T14:18:48;9.27;;;4.03;;
61635;SDS011;59438;45.014;39.006;2023-02-15T14:21:21;11.25;;;4.97;;
61635;SDS011;59438;45.014;39.006;2023-02-15T14:24:01;9.15;;;4.75;;
61635;SDS011;59438;45.014;39.006;2023-02-15T14:26:41;9.90;;;5.40;;
61635;SDS011;59438;45.014;39.006;2023-02-15T14:29:17;10.15;;;5.63;;
61635;SDS011;59438;45.014;39.006;2023-02-15T14:31:52;9.70;;;4.90;;
61635;SDS011;59438;45.014;39.006;2023-02-15T14:34:24;10.50;;;4.75;;
61635;SDS011;59438;45.014;39.006;2023-02-15T14:36:55;6.65;;;4.72;;
61635;SDS011;59438;45.014;39.006;2023-02-15T14:39:26;7.30;;;4.43;;
61635;SDS011;59438;45.014;39.006;2023-02-15T14:41:57;9.85;;;5.10;;
61635;SDS011;59438;45.014;39.006;2023-02-15T14:44:31;10.50;;;5.50;;
61635;SDS011;59438;45.014;39.006;2023-02-15T14:47:04;8.02;;;5.07;;
61635;SDS011;59438;45.014;39.006;2023-02-15T14:49:38;8.38;;;5.15;;
61635;SDS011;59438;45.014;39.006;2023-02-15T14:52:06;10.87;;;6.33;;
61635;SDS011;59438;45.014;39.006;2023-02-15T14:57:35;9.18;;;4.88;;
61635;SDS011;59438;45.014;39.006;2023-02-15T15:02:57;10.93;;;5.20;;
61635;SDS011;59438;45.014;39.006;2023-02-15T15:05:27;9.20;;;5.82;;
61635;SDS011;59438;45.014;39.006;2023-02-15T15:07:58;9.45;;;5.30;;
61635;SDS011;59438;45.014;39.006;2023-02-15T15:10:35;10.27;;;5.70;;
61635;SDS011;59438;45.014;39.006;2023-02-15T15:16:23;10.02;;;5.60;;
61635;SDS011;59438;45.014;39.006;2023-02-15T15:18:53;10.63;;;4.72;;
61635;SDS011;59438;45.014;39.006;2023-02-15T15:24:46;9.07;;;5.28;;